Time;durP1;ratioP1;P1;durP2;ratioP2;P2;SDS_P1;SDS_P2;PMS_P1;PMS_P2;Temp;Humidity;BMP_temperature;BMP_pressure;BME280_temperature;BME280_humidity;BME280_pressure;Samples;Min_cycle;Max_cycle;Signal;HPM_P1;HPM_P2
2022/05/08 00:00:10;;;;;;;1.45;1.35;;;21.70;57.20;;;;;;4994730;28;20081;-15
2022/05/08 00:02:36;;;;;;;1.02;1.02;;;21.70;57.30;;;;;;4972270;28;20042;-17
2022/05/08 00:05:01;;;;;;;1.52;1.42;;;21.70;57.40;;;;;;4973407;28;20055;-16
2022/05/08 00:07:27;;;;;;;1.48;1.38;;;21.70;57.30;;;;;;4974834;28;20130;-16
2022/05/08 00:09:52;;;;;;;1.50;1.40;;;21.70;57.30;;;;;;4973783;28;20154;-16
2022/05/08 00:12:18;;;;;;;1.30;1.20;;;21.70;57.40;;;;;;4974977;28;20242;-16
2022/05/08 00:14:44;;;;;;;1.50;1.15;;;21.70;57.20;;;;;;4975622;28;20046;-16
2022/05/08 00:17:11;;;;;;;1.20;1.10;;;21.70;57.30;;;;;;4972366;28;20570;-15
2022/05/08 00:19:39;;;;;;;1.20;1.20;;;21.70;57.30;;;;;;4974466;28;20063;-16
2022/05/08 00:22:06;;;;;;;1.30;1.30;;;21.70;57.30;;;;;;4975728;28;20081;-15
2022/05/08 00:24:32;;;;;;;1.50;1.40;;;21.70;57.30;;;;;;4976701;28;20042;-16
2022/05/08 00:26:57;;;;;;;2.60;1.52;;;21.70;57.30;;;;;;4998010;28;20050;-15
2022/05/08 00:29:23;;;;;;;1.02;1.02;;;21.70;57.40;;;;;;4972813;28;20101;-16
2022/05/08 00:31:49;;;;;;;1.33;1.23;;;21.60;57.30;;;;;;4998850;28;20461;-15
2022/05/08 00:34:14;;;;;;;0.93;0.93;;;21.60;57.30;;;;;;4975927;28;20042;-16
2022/05/08 00:36:40;;;;;;;0.88;0.88;;;21.60;57.40;;;;;;4974395;28;20070;-15
2022/05/08 00:39:06;;;;;;;1.27;1.17;;;21.60;57.50;;;;;;4998612;28;20042;-15
2022/05/08 00:41:31;;;;;;;1.13;1.02;;;21.60;57.30;;;;;;4975803;28;20043;-16
2022/05/08 00:43:57;;;;;;;0.90;0.90;;;21.60;57.30;;;;;;4975284;28;20043;-15
2022/05/08 00:46:22;;;;;;;1.13;1.00;;;21.70;57.30;;;;;;4974433;28;20089;-15
2022/05/08 00:48:48;;;;;;;0.90;0.90;;;21.70;57.20;;;;;;4973858;28;20035;-15
2022/05/08 00:51:15;;;;;;;1.27;0.90;;;21.60;57.30;;;;;;4975178;28;20043;-16
2022/05/08 00:53:43;;;;;;;1.02;1.00;;;21.60;57.40;;;;;;4974864;28;20039;-16
2022/05/08 00:56:10;;;;;;;1.48;1.38;;;21.60;57.30;;;;;;4975472;28;20090;-15
2022/05/08 00:58:37;;;;;;;0.90;0.90;;;21.60;57.30;;;;;;4973743;28;20035;-16
2022/05/08 01:01:03;;;;;;;1.20;1.20;;;21.60;57.40;;;;;;4975138;28;20047;-16
2022/05/08 01:03:29;;;;;;;1.08;1.08;;;21.60;57.30;;;;;;4972794;28;20066;-16
2022/05/08 01:05:55;;;;;;;1.38;1.27;;;21.60;57.30;;;;;;4975522;28;20595;-15
2022/05/08 01:08:22;;;;;;;0.90;0.90;;;21.60;57.30;;;;;;4975561;28;20078;-16
2022/05/08 01:10:47;;;;;;;0.90;0.90;;;21.60;57.20;;;;;;4973739;28;20460;-15
2022/05/08 01:13:13;;;;;;;0.80;0.80;;;21.60;57.30;;;;;;4975411;28;20419;-16
2022/05/08 01:15:40;;;;;;;1.13;1.02;;;21.60;57.20;;;;;;4975017;28;20600;-18
2022/05/08 01:18:06;;;;;;;0.80;0.80;;;21.60;57.30;;;;;;4975208;28;20511;-15
2022/05/08 01:20:31;;;;;;;0.70;0.70;;;21.60;57.30;;;;;;4972874;28;20419;-16
2022/05/08 01:22:57;;;;;;;0.80;0.80;;;21.60;57.30;;;;;;4975131;28;20043;-16
2022/05/08 01:25:23;;;;;;;0.95;0.95;;;21.50;57.30;;;;;;4975462;28;20046;-16
2022/05/08 01:27:48;;;;;;;0.95;0.95;;;21.50;57.30;;;;;;4974611;28;20523;-15
2022/05/08 01:30:14;;;;;;;1.17;0.80;;;21.50;57.30;;;;;;4979694;28;20051;-16
2022/05/08 01:32:39;;;;;;;0.90;0.90;;;21.60;57.30;;;;;;4998897;28;20046;-15
2022/05/08 01:35:05;;;;;;;0.93;0.77;;;21.50;57.20;;;;;;4997991;28;20054;-16
2022/05/08 01:37:31;;;;;;;0.80;0.80;;;21.50;57.30;;;;;;4987014;28;20412;-16
2022/05/08 01:39:57;;;;;;;0.90;0.90;;;21.50;57.30;;;;;;4989446;28;20077;-16
2022/05/08 01:42:23;;;;;;;0.95;0.95;;;21.60;57.40;;;;;;4981311;28;20054;-15
2022/05/08 01:44:50;;;;;;;0.90;0.90;;;21.50;57.30;;;;;;4978484;28;20325;-16
2022/05/08 01:50:00;;;;;;;;;;;21.50;57.30;;;;;;4985709;28;20586;-15
2022/05/08 01:52:26;;;;;;;1.80;0.70;;;21.50;57.30;;;;;;4979048;28;20290;-16
2022/05/08 01:54:52;;;;;;;1.38;0.75;;;21.50;57.40;;;;;;4977799;28;20519;-16
2022/05/08 01:57:18;;;;;;;1.08;1.08;;;21.50;57.40;;;;;;4989742;28;20499;-16
2022/05/08 01:59:44;;;;;;;0.90;0.90;;;21.50;57.50;;;;;;4994891;28;20460;-17
2022/05/08 02:02:09;;;;;;;0.80;0.80;;;21.50;57.40;;;;;;4977371;28;20420;-16
2022/05/08 02:04:36;;;;;;;0.82;0.70;;;21.50;57.50;;;;;;4979425;28;20062;-16
2022/05/08 02:07:01;;;;;;;0.70;0.70;;;21.50;57.60;;;;;;4996179;28;20491;-16
2022/05/08 02:09:27;;;;;;;0.77;0.77;;;21.50;57.60;;;;;;4997028;28;20403;-16
2022/05/08 02:11:53;;;;;;;0.90;0.90;;;21.40;57.40;;;;;;4983041;28;20502;-16
2022/05/08 02:14:18;;;;;;;0.90;0.90;;;21.50;57.50;;;;;;4992271;28;20053;-16
2022/05/08 02:16:44;;;;;;;0.80;0.80;;;21.50;57.50;;;;;;4983282;28;20058;-16
2022/05/08 02:19:09;;;;;;;0.80;0.80;;;21.50;57.50;;;;;;4992142;28;20407;-15
2022/05/08 02:21:35;;;;;;;0.50;0.50;;;21.50;57.60;;;;;;4996245;28;20042;-15
2022/05/08 02:24:01;;;;;;;0.85;0.85;;;21.50;57.60;;;;;;4997148;28;20074;-15
2022/05/08 02:26:26;;;;;;;2.10;0.77;;;21.40;57.50;;;;;;4978314;28;20051;-15
2022/05/08 02:28:52;;;;;;;0.95;0.95;;;21.40;58.10;;;;;;4975880;28;20047;-15
2022/05/08 02:31:17;;;;;;;0.85;0.85;;;21.50;57.60;;;;;;4978475;28;20050;-15
2022/05/08 02:33:43;;;;;;;0.80;0.80;;;21.50;57.50;;;;;;4978305;28;20039;-15
2022/05/08 02:36:09;;;;;;;0.80;0.80;;;21.50;57.50;;;;;;4986531;28;20046;-15
2022/05/08 02:38:34;;;;;;;0.90;0.90;;;21.40;57.40;;;;;;4978161;28;20516;-15
2022/05/08 02:41:00;;;;;;;0.80;0.80;;;21.40;57.40;;;;;;4976868;28;20641;-14
2022/05/08 02:43:25;;;;;;;0.90;0.90;;;21.40;57.40;;;;;;4977016;28;20393;-14
2022/05/08 02:45:51;;;;;;;0.93;0.88;;;21.40;57.50;;;;;;4964646;28;20118;-14
2022/05/08 02:48:17;;;;;;;0.80;0.80;;;21.40;57.60;;;;;;4958659;28;20135;-15
2022/05/08 02:50:42;;;;;;;2.47;0.77;;;21.40;57.50;;;;;;4980022;28;20066;-15
2022/05/08 02:53:08;;;;;;;1.70;0.60;;;21.40;57.50;;;;;;4996842;28;20081;-15
2022/05/08 02:58:33;;;;;;;0.80;0.80;;;21.40;57.60;;;;;;4977510;28;20113;-15
2022/05/08 03:01:02;;;;;;;0.70;0.70;;;21.40;57.50;;;;;;4985112;28;20077;-14
2022/05/08 03:03:27;;;;;;;0.82;0.82;;;21.40;57.50;;;;;;4979637;28;20056;-14
2022/05/08 03:05:53;;;;;;;0.80;0.80;;;21.40;57.50;;;;;;4994732;28;20133;-15
2022/05/08 03:08:19;;;;;;;0.80;0.80;;;21.40;57.50;;;;;;4988099;28;20054;-15
2022/05/08 03:13:37;;;;;;;2.38;0.80;;;21.40;57.50;;;;;;4981090;28;20085;-15
2022/05/08 03:16:07;;;;;;;0.60;0.60;;;21.40;57.50;;;;;;4976625;28;20063;-15
2022/05/08 03:18:34;;;;;;;0.65;0.65;;;21.40;57.50;;;;;;4974852;28;20058;-15
2022/05/08 03:21:00;;;;;;;1.00;1.00;;;21.40;57.50;;;;;;4957292;28;20436;-15
2022/05/08 03:23:26;;;;;;;0.70;0.70;;;21.40;57.50;;;;;;4957847;28;20045;-15
2022/05/08 03:25:52;;;;;;;0.63;0.63;;;21.40;57.60;;;;;;4996469;28;20046;-15
2022/05/08 03:28:18;;;;;;;0.82;0.82;;;21.30;57.60;;;;;;4977162;28;20042;-14
2022/05/08 03:30:44;;;;;;;0.70;0.70;;;21.30;57.60;;;;;;4977289;28;20072;-14
2022/05/08 03:33:10;;;;;;;0.77;0.73;;;21.30;57.50;;;;;;4987945;28;20046;-15
2022/05/08 03:35:36;;;;;;;0.77;0.77;;;21.30;57.50;;;;;;4991074;28;20039;-14
2022/05/08 03:38:02;;;;;;;0.80;0.77;;;21.40;57.50;;;;;;4976440;28;20460;-15
2022/05/08 03:40:27;;;;;;;0.68;0.63;;;21.40;57.50;;;;;;5009111;28;20051;-15
2022/05/08 03:42:54;;;;;;;0.80;0.80;;;21.30;57.50;;;;;;4957221;28;20448;-15
2022/05/08 03:45:20;;;;;;;0.70;0.70;;;21.30;57.50;;;;;;4957696;28;20135;-15
2022/05/08 03:47:46;;;;;;;0.50;0.50;;;21.30;57.60;;;;;;4964016;28;20097;-15
2022/05/08 03:50:12;;;;;;;0.55;0.55;;;21.30;58.20;;;;;;4974564;28;20416;-15
2022/05/08 03:52:38;;;;;;;0.80;0.80;;;21.30;57.60;;;;;;4973114;28;20051;-14
2022/05/08 03:55:04;;;;;;;0.70;0.70;;;21.30;58.10;;;;;;4958768;28;20043;-15
2022/05/08 03:57:30;;;;;;;0.60;0.60;;;21.30;57.50;;;;;;4996436;28;20097;-15
2022/05/08 03:59:55;;;;;;;0.52;0.52;;;21.30;57.60;;;;;;4991211;28;20047;-15
2022/05/08 04:02:21;;;;;;;0.70;0.70;;;21.30;57.60;;;;;;4976838;28;20831;-15
2022/05/08 04:04:46;;;;;;;0.70;0.70;;;21.30;57.60;;;;;;4976604;28;20427;-15
2022/05/08 04:07:13;;;;;;;0.70;0.70;;;21.30;57.60;;;;;;4975805;28;20331;-15
2022/05/08 04:09:39;;;;;;;0.88;0.82;;;21.30;57.60;;;;;;4980080;28;20161;-15
2022/05/08 04:12:04;;;;;;;0.60;0.60;;;21.30;57.50;;;;;;4975978;28;20074;-14
2022/05/08 04:14:30;;;;;;;0.70;0.70;;;21.30;57.50;;;;;;4974929;28;20051;-15
2022/05/08 04:16:56;;;;;;;0.55;0.55;;;21.30;57.60;;;;;;4986364;28;20042;-15
2022/05/08 04:19:21;;;;;;;0.60;0.60;;;21.30;57.50;;;;;;4994616;28;20046;-15
2022/05/08 04:21:47;;;;;;;0.60;0.60;;;21.30;57.50;;;;;;4995747;28;20098;-15
2022/05/08 04:24:19;;;;;;;0.80;0.80;;;21.30;57.60;;;;;;4990660;28;20050;-14
2022/05/08 04:26:47;;;;;;;0.57;0.57;;;21.30;57.70;;;;;;4990891;28;20038;-15
2022/05/08 04:29:13;;;;;;;0.70;0.70;;;21.30;57.60;;;;;;4976069;28;20055;-14
2022/05/08 04:31:38;;;;;;;0.55;0.55;;;21.30;57.60;;;;;;4976393;28;20043;-15
2022/05/08 04:34:04;;;;;;;0.70;0.70;;;21.30;57.50;;;;;;4976095;28;20069;-14
2022/05/08 04:36:30;;;;;;;0.95;0.60;;;21.30;57.50;;;;;;4989985;28;20042;-15
2022/05/08 04:38:56;;;;;;;0.63;0.63;;;21.30;57.50;;;;;;4995181;28;20046;-14
2022/05/08 04:41:21;;;;;;;0.60;0.60;;;21.30;57.50;;;;;;4995974;28;20039;-15
2022/05/08 04:43:47;;;;;;;0.55;0.55;;;21.30;57.50;;;;;;4987382;28;20089;-14
2022/05/08 04:46:12;;;;;;;0.60;0.60;;;21.20;57.40;;;;;;4976645;28;20166;-15
2022/05/08 04:48:39;;;;;;;0.50;0.50;;;21.20;57.50;;;;;;4995718;28;20096;-15
2022/05/08 04:51:05;;;;;;;0.45;0.45;;;21.20;57.50;;;;;;4973775;28;20039;-14
2022/05/08 04:53:30;;;;;;;0.47;0.47;;;21.20;57.50;;;;;;4983464;28;20153;-15
2022/05/08 04:55:57;;;;;;;0.40;0.40;;;21.30;57.50;;;;;;4994988;28;20141;-14
2022/05/08 04:58:23;;;;;;;0.60;0.60;;;21.30;57.50;;;;;;4993306;28;20581;-15
2022/05/08 05:00:48;;;;;;;0.60;0.60;;;21.20;57.40;;;;;;4971520;28;20476;-15
2022/05/08 05:03:14;;;;;;;0.63;0.63;;;21.20;57.40;;;;;;4956688;28;20055;-15
2022/05/08 05:05:40;;;;;;;0.60;0.60;;;21.20;57.50;;;;;;4976693;28;20046;-16
2022/05/08 05:08:06;;;;;;;0.60;0.60;;;21.20;57.60;;;;;;4977313;28;20062;-19
2022/05/08 05:10:32;;;;;;;0.73;0.73;;;21.20;57.60;;;;;;4954711;28;20047;-17
2022/05/08 05:12:57;;;;;;;0.60;0.60;;;21.20;57.50;;;;;;4950830;28;20830;-14
2022/05/08 05:15:26;;;;;;;0.57;0.57;;;21.20;57.60;;;;;;4957113;28;20057;-17
2022/05/08 05:17:54;;;;;;;1.02;0.50;;;21.20;57.60;;;;;;4952857;28;20047;-14
2022/05/08 05:20:20;;;;;;;0.50;0.50;;;21.20;57.70;;;;;;4957962;28;20043;-14
2022/05/08 05:22:45;;;;;;;0.50;0.50;;;21.20;57.60;;;;;;4952535;28;20059;-15
2022/05/08 05:25:11;;;;;;;0.55;0.55;;;21.20;57.60;;;;;;4952444;28;20074;-15
2022/05/08 05:27:36;;;;;;;0.70;0.70;;;21.10;57.60;;;;;;4952727;28;20109;-15
2022/05/08 05:30:03;;;;;;;0.63;0.63;;;21.10;57.80;;;;;;4956370;28;20050;-15
2022/05/08 05:32:29;;;;;;;0.90;0.90;;;21.20;57.70;;;;;;4952675;28;20113;-17
2022/05/08 05:34:54;;;;;;;0.70;0.70;;;21.10;57.60;;;;;;4952657;28;20069;-18
2022/05/08 05:37:20;;;;;;;0.70;0.70;;;21.10;57.70;;;;;;4982549;28;20050;-15
2022/05/08 05:39:46;;;;;;;0.80;0.80;;;21.10;57.70;;;;;;4953132;28;20704;-15
2022/05/08 05:42:11;;;;;;;0.80;0.80;;;21.20;57.60;;;;;;4952757;28;20070;-16
2022/05/08 05:44:38;;;;;;;0.77;0.77;;;21.20;57.60;;;;;;4950170;28;22222;-15
2022/05/08 05:49:48;;;;;;;1.00;1.00;;;21.20;57.70;;;;;;4953256;28;20078;-16
2022/05/08 05:52:14;;;;;;;0.65;0.65;;;21.10;57.60;;;;;;4954553;28;20071;-16
2022/05/08 05:54:39;;;;;;;0.90;0.90;;;21.20;57.70;;;;;;4953111;28;20043;-16
2022/05/08 05:57:05;;;;;;;0.85;0.85;;;21.10;57.70;;;;;;4947637;28;20683;-16
2022/05/08 05:59:31;;;;;;;0.90;0.90;;;21.10;57.70;;;;;;4982509;28;20053;-16
2022/05/08 06:01:56;;;;;;;0.80;0.80;;;21.10;57.70;;;;;;4952290;28;20061;-15
2022/05/08 06:04:22;;;;;;;1.58;0.90;;;21.20;57.70;;;;;;4950698;28;20038;-16
2022/05/08 06:06:48;;;;;;;0.70;0.70;;;21.10;57.70;;;;;;4951293;28;20059;-18
2022/05/08 06:09:13;;;;;;;0.98;0.98;;;21.10;57.80;;;;;;4952085;28;21066;-16
2022/05/08 06:11:39;;;;;;;0.60;0.60;;;21.10;58.40;;;;;;4956155;28;20381;-16
2022/05/08 06:14:04;;;;;;;0.63;0.63;;;21.10;57.80;;;;;;4951284;28;20050;-16
2022/05/08 06:16:33;;;;;;;0.85;0.85;;;21.10;57.90;;;;;;4949839;28;20091;-15
2022/05/08 06:18:58;;;;;;;1.05;1.05;;;21.10;57.90;;;;;;4950371;28;20039;-16
2022/05/08 06:21:25;;;;;;;0.90;0.90;;;21.10;57.70;;;;;;4951009;28;20057;-14
2022/05/08 06:23:52;;;;;;;0.90;0.90;;;21.10;57.90;;;;;;4951120;28;20051;-15
2022/05/08 06:26:18;;;;;;;1.17;1.17;;;21.10;57.90;;;;;;4950718;28;20134;-15
2022/05/08 06:28:45;;;;;;;0.85;0.77;;;21.10;58.00;;;;;;4951052;28;20231;-15
2022/05/08 06:31:11;;;;;;;0.85;0.85;;;21.10;57.90;;;;;;4950603;28;20050;-15
2022/05/08 06:33:36;;;;;;;1.05;0.93;;;21.10;57.90;;;;;;4950186;28;20058;-15
2022/05/08 06:36:02;;;;;;;0.93;0.93;;;21.10;57.90;;;;;;4967991;28;20169;-15
2022/05/08 06:38:28;;;;;;;1.08;1.08;;;21.10;57.90;;;;;;4951193;28;21922;-14
2022/05/08 06:40:53;;;;;;;0.90;0.90;;;21.10;58.00;;;;;;4950770;28;20166;-14
2022/05/08 06:43:19;;;;;;;0.98;0.98;;;21.10;58.00;;;;;;4964873;28;20047;-15
2022/05/08 06:45:45;;;;;;;1.17;1.05;;;21.10;58.10;;;;;;4985730;28;20054;-15
2022/05/08 06:48:10;;;;;;;0.80;0.80;;;21.10;58.10;;;;;;4948791;28;20061;-14
2022/05/08 06:50:36;;;;;;;1.00;1.00;;;21.10;58.00;;;;;;4951610;28;20047;-15
2022/05/08 06:53:04;;;;;;;1.10;1.10;;;21.10;58.10;;;;;;4947519;28;20139;-16
2022/05/08 06:55:29;;;;;;;0.98;0.98;;;21.10;58.00;;;;;;4949639;28;20065;-16
2022/05/08 06:57:55;;;;;;;0.98;0.98;;;21.10;58.10;;;;;;4948656;28;20050;-16
2022/05/08 07:03:05;;;;;;;1.17;1.00;;;21.10;58.00;;;;;;4949419;28;20061;-15
2022/05/08 07:05:32;;;;;;;1.25;1.15;;;21.10;58.00;;;;;;4982100;28;20127;-16
2022/05/08 07:07:57;;;;;;;1.20;1.20;;;21.10;58.10;;;;;;4951479;28;20049;-15
2022/05/08 07:10:23;;;;;;;1.10;1.10;;;21.10;58.10;;;;;;4951650;28;20752;-16
2022/05/08 07:12:48;;;;;;;1.15;1.15;;;21.00;58.10;;;;;;4949448;28;20067;-16
2022/05/08 07:15:14;;;;;;;1.15;1.15;;;21.10;58.20;;;;;;4951452;28;20134;-16
2022/05/08 07:17:42;;;;;;;0.90;0.90;;;21.10;58.80;;;;;;4951014;28;20054;-16
2022/05/08 07:20:08;;;;;;;1.10;1.10;;;21.10;58.20;;;;;;4953281;28;20613;-16
2022/05/08 07:22:35;;;;;;;1.20;1.20;;;21.00;58.10;;;;;;4967275;28;20051;-15
2022/05/08 07:25:01;;;;;;;1.08;1.08;;;21.00;58.10;;;;;;4971446;28;20073;-15
2022/05/08 07:27:27;;;;;;;1.10;1.10;;;21.00;58.20;;;;;;4969246;28;20131;-16
2022/05/08 07:29:53;;;;;;;1.40;1.30;;;21.00;58.20;;;;;;4975985;28;20063;-16
2022/05/08 07:32:18;;;;;;;1.20;1.20;;;21.10;58.20;;;;;;4970425;28;20054;-16
2022/05/08 07:37:28;;;;;;;;;;;21.00;58.10;;;;;;4975410;28;20133;-15
2022/05/08 07:39:54;;;;;;;2.55;1.40;;;21.10;58.30;;;;;;4975765;28;20028;-16
2022/05/08 07:42:19;;;;;;;1.42;1.42;;;21.10;58.30;;;;;;4975378;28;20491;-16
2022/05/08 07:44:45;;;;;;;1.92;1.83;;;21.00;58.30;;;;;;4975751;28;20092;-16
2022/05/08 07:47:11;;;;;;;2.97;1.80;;;21.10;58.50;;;;;;4976518;28;20046;-15
2022/05/08 07:49:36;;;;;;;2.10;2.00;;;21.10;58.70;;;;;;4976074;28;20039;-16
2022/05/08 07:52:02;;;;;;;2.05;1.95;;;21.10;58.90;;;;;;4969008;28;20050;-16
2022/05/08 07:54:28;;;;;;;1.95;1.85;;;21.10;58.70;;;;;;4969524;28;20050;-16
2022/05/08 07:56:54;;;;;;;1.67;1.58;;;21.10;59.10;;;;;;4972834;28;20153;-16
2022/05/08 07:59:19;;;;;;;1.77;1.67;;;21.10;59.00;;;;;;4970482;28;20048;-16
2022/05/08 08:01:45;;;;;;;2.08;1.98;;;21.10;59.00;;;;;;4966277;28;20078;-17
2022/05/08 08:04:11;;;;;;;1.95;1.85;;;21.10;59.10;;;;;;4964187;28;20046;-16
2022/05/08 08:06:36;;;;;;;2.10;1.75;;;21.20;59.00;;;;;;4964238;28;20101;-15
2022/05/08 08:09:04;;;;;;;1.73;1.63;;;21.10;59.00;;;;;;4984562;28;20585;-16
2022/05/08 08:11:30;;;;;;;2.00;1.27;;;21.20;59.00;;;;;;4963505;28;20151;-16
2022/05/08 08:13:56;;;;;;;1.65;1.55;;;21.10;59.30;;;;;;4968609;28;20086;-16
2022/05/08 08:16:22;;;;;;;2.38;2.28;;;21.00;59.40;;;;;;4968019;28;20387;-16
2022/05/08 08:18:48;;;;;;;3.20;2.92;;;21.10;59.40;;;;;;4974215;28;20078;-16
2022/05/08 08:21:15;;;;;;;4.05;3.75;;;21.00;59.50;;;;;;4968478;28;20051;-21
2022/05/08 08:23:41;;;;;;;4.38;4.07;;;21.00;59.50;;;;;;4969116;28;20138;-16
2022/05/08 08:26:08;;;;;;;5.10;4.72;;;21.00;59.70;;;;;;4968124;28;20050;-17
2022/05/08 08:28:33;;;;;;;4.80;4.50;;;21.00;59.80;;;;;;4969787;28;20117;-16
2022/05/08 08:30:59;;;;;;;5.82;5.20;;;21.00;59.60;;;;;;4969821;28;20050;-16
2022/05/08 08:33:26;;;;;;;6.20;5.80;;;21.00;59.70;;;;;;4967565;28;20074;-15
2022/05/08 08:35:55;;;;;;;6.63;6.07;;;20.90;59.80;;;;;;4626523;28;9999794;-16
2022/05/08 08:38:21;;;;;;;6.45;5.88;;;20.90;59.90;;;;;;4967909;28;20047;-16
2022/05/08 08:40:48;;;;;;;8.82;6.82;;;21.00;59.50;;;;;;4972434;28;20113;-16
2022/05/08 08:43:17;;;;;;;8.48;6.35;;;21.00;59.70;;;;;;4993634;28;20142;-16
2022/05/08 08:48:28;;;;;;;8.23;7.45;;;21.00;59.90;;;;;;4971330;28;20105;-16
2022/05/08 08:50:58;;;;;;;8.35;7.53;;;20.90;60.00;;;;;;4975481;28;20495;-16
2022/05/08 08:53:24;;;;;;;9.48;8.13;;;20.90;60.00;;;;;;4971274;28;21466;-16
2022/05/08 08:55:50;;;;;;;8.95;8.05;;;20.90;60.10;;;;;;4974939;28;20053;-16
2022/05/08 08:58:17;;;;;;;10.75;8.48;;;20.90;60.00;;;;;;4974292;28;20134;-16
2022/05/08 09:00:49;;;;;;;9.13;8.27;;;20.90;60.00;;;;;;4967530;28;20058;-16
2022/05/08 09:03:25;;;;;;;10.38;9.05;;;20.90;60.20;;;;;;4968537;28;21579;-16
2022/05/08 09:05:57;;;;;;;9.88;8.80;;;20.90;60.20;;;;;;4972276;28;20058;-16
2022/05/08 09:08:30;;;;;;;10.25;8.63;;;20.90;60.00;;;;;;4967420;28;20060;-15
2022/05/08 09:10:58;;;;;;;9.07;7.93;;;21.10;59.60;;;;;;4971349;28;20055;-16
2022/05/08 09:13:26;;;;;;;9.88;8.88;;;21.00;59.70;;;;;;4971650;28;20047;-15
2022/05/08 09:16:10;;;;;;;9.82;8.93;;;21.00;59.80;;;;;;4996696;28;20504;-16
2022/05/08 09:18:48;;;;;;;9.40;8.23;;;21.00;59.80;;;;;;4968866;28;20059;-15
2022/05/08 09:24:14;;;;;;;9.32;8.43;;;21.00;59.80;;;;;;4970323;28;20065;-15
2022/05/08 09:26:40;;;;;;;10.23;9.18;;;21.00;59.90;;;;;;4973268;28;20157;-16
2022/05/08 09:29:05;;;;;;;10.73;8.43;;;21.00;60.00;;;;;;4968419;28;20047;-16
2022/05/08 09:31:41;;;;;;;9.75;8.70;;;21.00;59.90;;;;;;4969654;28;20047;-16
2022/05/08 09:34:07;;;;;;;9.77;8.77;;;21.10;59.90;;;;;;4969921;28;20047;-16
2022/05/08 09:36:32;;;;;;;10.07;9.07;;;21.10;59.90;;;;;;4971441;28;20054;-16
2022/05/08 09:38:59;;;;;;;11.65;9.52;;;21.10;60.00;;;;;;4970460;28;20120;-15
2022/05/08 09:41:31;;;;;;;10.63;9.52;;;21.10;60.00;;;;;;4969924;28;20078;-16
2022/05/08 09:44:09;;;;;;;11.38;9.30;;;21.10;59.90;;;;;;4975146;28;20042;-16
2022/05/08 09:46:44;;;;;;;10.73;9.52;;;21.20;59.70;;;;;;4976073;28;20050;-17
2022/05/08 09:49:23;;;;;;;12.23;10.07;;;21.20;59.60;;;;;;4975658;28;20042;-16
2022/05/08 09:51:49;;;;;;;12.38;9.93;;;21.30;59.70;;;;;;4969299;28;20608;-16
2022/05/08 09:54:16;;;;;;;11.00;8.77;;;21.30;59.70;;;;;;4972985;28;20043;-16
2022/05/08 09:56:44;;;;;;;27.60;10.48;;;21.30;59.70;;;;;;4994257;28;20479;-16
2022/05/08 09:59:10;;;;;;;26.73;11.77;;;21.20;60.20;;;;;;4977832;28;20100;-15
2022/05/08 10:01:37;;;;;;;35.40;10.68;;;21.30;59.90;;;;;;4968458;28;20047;-16
2022/05/08 10:04:03;;;;;;;17.05;9.90;;;21.30;59.90;;;;;;4974560;28;20035;-18
2022/05/08 10:06:30;;;;;;;20.10;10.90;;;21.30;59.90;;;;;;4971977;28;20089;-16
2022/05/08 10:13:53;;;;;;;15.35;10.02;;;21.30;59.90;;;;;;4973786;28;20038;-16
2022/05/08 10:14:30;;;;;;;12.32;10.00;;;21.50;59.80;;;;;;4982700;28;20065;-15
2022/05/08 10:17:04;;;;;;;12.43;9.73;;;21.40;59.90;;;;;;4977944;28;20058;-15
2022/05/08 10:19:30;;;;;;;12.57;10.55;;;21.40;60.20;;;;;;4975914;28;20039;-15
2022/05/08 10:22:10;;;;;;;13.95;10.55;;;21.50;60.10;;;;;;4966569;28;20460;-15
2022/05/08 10:24:39;;;;;;;11.85;9.48;;;21.40;60.20;;;;;;4970796;28;20058;-15
2022/05/08 10:27:11;;;;;;;13.30;9.45;;;21.40;60.10;;;;;;4969249;28;20074;-15
2022/05/08 10:30:03;;;;;;;11.40;10.15;;;21.50;59.90;;;;;;4969528;28;20831;-15
2022/05/08 10:32:31;;;;;;;11.45;9.48;;;21.50;60.00;;;;;;4957682;28;20053;-15
2022/05/08 10:35:16;;;;;;;11.38;8.93;;;21.50;60.20;;;;;;4963136;28;20098;-15
2022/05/08 10:37:51;;;;;;;10.35;9.35;;;21.50;60.30;;;;;;4972367;28;20100;-15
2022/05/08 10:40:22;;;;;;;14.73;9.75;;;21.60;60.10;;;;;;4966474;28;20046;-15
2022/05/08 10:42:55;;;;;;;10.52;9.02;;;21.70;59.70;;;;;;4975246;28;20133;-15
2022/05/08 10:45:33;;;;;;;12.10;8.82;;;21.80;59.80;;;;;;4976958;28;20042;-16
2022/05/08 10:48:01;;;;;;;12.38;8.43;;;21.80;59.80;;;;;;4976272;28;20050;-15
2022/05/08 10:50:26;;;;;;;9.52;8.05;;;21.80;59.80;;;;;;4975953;28;20583;-15
2022/05/08 10:52:52;;;;;;;10.10;8.57;;;21.80;59.90;;;;;;4973871;28;20492;-15
2022/05/08 10:55:18;;;;;;;11.30;9.05;;;21.70;59.90;;;;;;4975744;28;20110;-16
2022/05/08 10:57:48;;;;;;;11.65;9.50;;;21.70;59.90;;;;;;4977934;28;20385;-15
2022/05/08 11:00:20;;;;;;;10.05;8.95;;;21.70;59.90;;;;;;4977303;28;20042;-15
2022/05/08 11:02:54;;;;;;;9.43;8.40;;;21.70;59.90;;;;;;4976539;28;20050;-15
2022/05/08 11:05:27;;;;;;;11.20;9.45;;;21.70;59.80;;;;;;4959213;28;20058;-15
2022/05/08 11:07:57;;;;;;;9.10;8.10;;;21.70;60.00;;;;;;4971322;28;20404;-15
2022/05/08 11:10:24;;;;;;;11.68;8.95;;;21.70;60.30;;;;;;4977797;28;20120;-15
2022/05/08 11:13:06;;;;;;;9.48;7.43;;;21.70;60.10;;;;;;4979458;28;20070;-15
2022/05/08 11:15:36;;;;;;;8.07;7.32;;;21.80;60.20;;;;;;4975718;28;20094;-15
2022/05/08 11:18:12;;;;;;;9.95;8.57;;;21.80;60.10;;;;;;4976641;28;20093;-15
2022/05/08 11:20:57;;;;;;;9.35;7.88;;;21.80;60.30;;;;;;4975689;28;20137;-15
2022/05/08 11:23:45;;;;;;;9.02;8.13;;;21.70;60.40;;;;;;5021725;28;20405;-16
2022/05/08 11:26:12;;;;;;;9.68;8.73;;;21.80;60.40;;;;;;5007966;28;20049;-16
2022/05/08 11:28:51;;;;;;;10.75;7.72;;;21.80;60.60;;;;;;5006152;28;20064;-16
2022/05/08 11:31:18;;;;;;;9.02;7.93;;;21.80;60.60;;;;;;5007187;28;20603;-16
2022/05/08 11:36:32;;;;;;;12.27;10.93;;;21.90;61.00;;;;;;5008215;28;20636;-16
2022/05/08 11:39:04;;;;;;;14.00;11.88;;;21.90;60.40;;;;;;5004079;28;20053;-16
2022/05/08 11:41:33;;;;;;;13.02;11.75;;;21.90;60.70;;;;;;5007003;28;20110;-16
2022/05/08 11:44:02;;;;;;;16.60;11.25;;;21.90;60.70;;;;;;5008894;28;20038;-15
2022/05/08 11:46:36;;;;;;;13.63;11.07;;;21.90;60.60;;;;;;5006414;28;20050;-16
2022/05/08 11:49:11;;;;;;;12.77;11.10;;;22.00;60.50;;;;;;5007763;28;20583;-16
2022/05/08 11:51:41;;;;;;;13.18;11.23;;;22.00;60.60;;;;;;4991779;28;20403;-16
2022/05/08 11:54:20;;;;;;;13.63;10.93;;;22.00;60.40;;;;;;5005745;28;20054;-16
2022/05/08 11:56:47;;;;;;;11.68;10.63;;;22.00;60.20;;;;;;5006890;28;20050;-16
2022/05/08 11:59:16;;;;;;;14.52;11.20;;;22.00;60.10;;;;;;5006019;28;20092;-17
2022/05/08 12:01:47;;;;;;;10.77;9.73;;;22.00;59.70;;;;;;5006531;28;20507;-16
2022/05/08 12:04:27;;;;;;;10.88;9.50;;;22.10;59.80;;;;;;5007290;28;20072;-16
2022/05/08 12:07:09;;;;;;;11.65;10.18;;;22.10;59.40;;;;;;5005507;28;20042;-15
2022/05/08 12:09:45;;;;;;;14.63;9.60;;;22.10;59.50;;;;;;5003280;28;20060;-16
2022/05/08 12:12:23;;;;;;;11.93;9.32;;;22.10;59.50;;;;;;5005770;28;20469;-16
2022/05/08 12:14:49;;;;;;;16.17;10.88;;;22.10;59.30;;;;;;5010521;28;20056;-16
2022/05/08 12:17:14;;;;;;;14.02;11.32;;;22.20;59.50;;;;;;5010108;28;20045;-16
2022/05/08 12:19:53;;;;;;;12.45;10.30;;;22.20;59.10;;;;;;5007723;28;20112;-16
2022/05/08 12:22:26;;;;;;;11.52;9.57;;;22.20;58.90;;;;;;5004331;28;20141;-16
2022/05/08 12:24:58;;;;;;;17.83;12.52;;;22.20;59.10;;;;;;5004865;28;20054;-15
2022/05/08 12:27:23;;;;;;;18.40;13.05;;;22.30;59.60;;;;;;5001966;28;20042;-16
2022/05/08 12:29:50;;;;;;;23.10;16.65;;;22.20;58.90;;;;;;5002182;28;20566;-16
2022/05/08 12:32:16;;;;;;;33.75;20.48;;;22.20;59.30;;;;;;5008005;28;20043;-16
2022/05/08 12:34:43;;;;;;;27.80;18.60;;;22.20;60.00;;;;;;5005711;28;20070;-15
2022/05/08 12:37:12;;;;;;;33.00;21.38;;;22.20;59.30;;;;;;4991658;28;20043;-15
2022/05/08 12:39:38;;;;;;;38.88;23.50;;;22.20;59.70;;;;;;4991869;28;20081;-15
2022/05/08 12:42:04;;;;;;;45.17;26.67;;;22.20;60.30;;;;;;4992230;28;20063;-15
2022/05/08 12:44:30;;;;;;;37.78;24.65;;;22.20;60.30;;;;;;4987934;28;20051;-15
2022/05/08 12:46:56;;;;;;;35.72;21.95;;;22.20;59.90;;;;;;4995660;28;20065;-15
2022/05/08 12:49:22;;;;;;;36.05;23.70;;;22.20;59.70;;;;;;4994403;28;20051;-15
2022/05/08 12:51:47;;;;;;;32.55;20.02;;;22.20;60.00;;;;;;4991234;28;20052;-15
2022/05/08 12:54:13;;;;;;;31.90;21.10;;;22.20;59.50;;;;;;4990568;28;20050;-15
2022/05/08 12:56:40;;;;;;;26.58;19.08;;;22.20;60.10;;;;;;4994653;28;20038;-15
2022/05/08 13:01:49;;;;;;;24.90;16.48;;;22.10;60.70;;;;;;4981080;28;20049;-15
2022/05/08 13:04:15;;;;;;;23.83;16.52;;;22.10;60.30;;;;;;4994406;28;21485;-15
2022/05/08 13:06:41;;;;;;;24.73;16.40;;;22.10;60.40;;;;;;4641700;28;10000405;-15
2022/05/08 13:09:07;;;;;;;22.05;14.95;;;22.20;60.20;;;;;;4990715;28;20290;-15
2022/05/08 13:11:33;;;;;;;22.45;15.35;;;22.20;59.80;;;;;;4993211;28;20050;-15
2022/05/08 13:14:00;;;;;;;18.98;13.63;;;22.20;60.10;;;;;;4993045;28;20046;-15